sensor_id;sensor_type;location;lat;lon;timestamp;P1;durP1;ratioP1;P2;durP2;ratioP2
29500;SDS011;16450;50.288;10.966;2023-04-24T00:00:37;5.30;;;1.77;;
29500;SDS011;16450;50.288;10.966;2023-04-24T00:03:42;4.80;;;1.80;;
29500;SDS011;16450;50.288;10.966;2023-04-24T00:06:44;3.17;;;1.63;;
29500;SDS011;16450;50.288;10.966;2023-04-24T00:09:50;2.07;;;1.50;;
29500;SDS011;16450;50.288;10.966;2023-04-24T00:12:52;2.63;;;1.60;;
29500;SDS011;16450;50.288;10.966;2023-04-24T00:15:55;3.17;;;1.70;;
29500;SDS011;16450;50.288;10.966;2023-04-24T00:18:57;4.17;;;1.60;;
29500;SDS011;16450;50.288;10.966;2023-04-24T00:21:59;3.63;;;1.80;;
29500;SDS011;16450;50.288;10.966;2023-04-24T00:25:01;3.70;;;1.70;;
29500;SDS011;16450;50.288;10.966;2023-04-24T00:28:03;3.23;;;1.97;;
29500;SDS011;16450;50.288;10.966;2023-04-24T00:31:04;3.10;;;1.90;;
29500;SDS011;16450;50.288;10.966;2023-04-24T00:34:06;4.17;;;2.00;;
29500;SDS011;16450;50.288;10.966;2023-04-24T00:37:08;2.73;;;1.90;;
29500;SDS011;16450;50.288;10.966;2023-04-24T00:40:10;2.50;;;1.90;;
29500;SDS011;16450;50.288;10.966;2023-04-24T00:43:12;2.67;;;2.37;;
29500;SDS011;16450;50.288;10.966;2023-04-24T00:46:14;3.07;;;2.40;;
29500;SDS011;16450;50.288;10.966;2023-04-24T00:49:18;2.83;;;2.07;;
29500;SDS011;16450;50.288;10.966;2023-04-24T00:52:20;2.27;;;2.07;;
29500;SDS011;16450;50.288;10.966;2023-04-24T00:55:25;5.90;;;2.20;;
29500;SDS011;16450;50.288;10.966;2023-04-24T00:58:27;3.57;;;2.40;;
29500;SDS011;16450;50.288;10.966;2023-04-24T01:01:30;5.13;;;2.37;;
29500;SDS011;16450;50.288;10.966;2023-04-24T01:04:32;2.90;;;2.07;;
29500;SDS011;16450;50.288;10.966;2023-04-24T01:07:34;2.60;;;2.00;;
29500;SDS011;16450;50.288;10.966;2023-04-24T01:10:38;2.77;;;2.10;;
29500;SDS011;16450;50.288;10.966;2023-04-24T01:13:42;3.10;;;2.10;;
29500;SDS011;16450;50.288;10.966;2023-04-24T01:16:44;3.57;;;2.13;;
29500;SDS011;16450;50.288;10.966;2023-04-24T01:19:45;2.33;;;2.10;;
29500;SDS011;16450;50.288;10.966;2023-04-24T01:22:47;4.77;;;2.20;;
29500;SDS011;16450;50.288;10.966;2023-04-24T01:25:50;4.10;;;2.40;;
29500;SDS011;16450;50.288;10.966;2023-04-24T01:28:52;4.93;;;2.43;;
29500;SDS011;16450;50.288;10.966;2023-04-24T01:31:54;3.53;;;2.20;;
29500;SDS011;16450;50.288;10.966;2023-04-24T01:34:56;3.83;;;2.20;;
29500;SDS011;16450;50.288;10.966;2023-04-24T01:37:59;3.73;;;2.00;;
29500;SDS011;16450;50.288;10.966;2023-04-24T01:41:01;3.93;;;2.00;;
29500;SDS011;16450;50.288;10.966;2023-04-24T01:44:03;4.70;;;2.03;;
29500;SDS011;16450;50.288;10.966;2023-04-24T01:47:05;2.93;;;2.10;;
29500;SDS011;16450;50.288;10.966;2023-04-24T01:50:08;3.50;;;2.07;;
29500;SDS011;16450;50.288;10.966;2023-04-24T01:53:10;3.77;;;2.13;;
29500;SDS011;16450;50.288;10.966;2023-04-24T01:56:13;2.57;;;1.90;;
29500;SDS011;16450;50.288;10.966;2023-04-24T01:59:15;3.13;;;2.07;;
29500;SDS011;16450;50.288;10.966;2023-04-24T02:02:19;2.63;;;1.70;;
29500;SDS011;16450;50.288;10.966;2023-04-24T02:05:22;3.97;;;1.70;;
29500;SDS011;16450;50.288;10.966;2023-04-24T02:08:24;3.77;;;1.60;;
29500;SDS011;16450;50.288;10.966;2023-04-24T02:11:26;2.97;;;1.57;;
29500;SDS011;16450;50.288;10.966;2023-04-24T02:14:28;2.90;;;1.50;;
29500;SDS011;16450;50.288;10.966;2023-04-24T02:17:30;3.87;;;1.70;;
29500;SDS011;16450;50.288;10.966;2023-04-24T02:20:32;1.90;;;1.60;;
29500;SDS011;16450;50.288;10.966;2023-04-24T02:23:38;3.70;;;1.37;;
29500;SDS011;16450;50.288;10.966;2023-04-24T02:26:40;4.87;;;1.93;;
29500;SDS011;16450;50.288;10.966;2023-04-24T02:29:42;2.20;;;1.23;;
29500;SDS011;16450;50.288;10.966;2023-04-24T02:32:44;2.07;;;1.40;;
29500;SDS011;16450;50.288;10.966;2023-04-24T02:35:46;1.67;;;1.40;;
29500;SDS011;16450;50.288;10.966;2023-04-24T02:38:48;3.20;;;1.40;;
29500;SDS011;16450;50.288;10.966;2023-04-24T02:41:49;3.77;;;1.60;;
29500;SDS011;16450;50.288;10.966;2023-04-24T02:44:51;3.27;;;1.33;;
29500;SDS011;16450;50.288;10.966;2023-04-24T02:47:53;4.90;;;1.60;;
29500;SDS011;16450;50.288;10.966;2023-04-24T02:50:55;2.13;;;1.23;;
29500;SDS011;16450;50.288;10.966;2023-04-24T02:53:58;2.30;;;1.40;;
29500;SDS011;16450;50.288;10.966;2023-04-24T02:57:00;4.40;;;1.30;;
29500;SDS011;16450;50.288;10.966;2023-04-24T03:00:02;3.37;;;1.73;;
29500;SDS011;16450;50.288;10.966;2023-04-24T03:03:08;1.80;;;1.27;;
29500;SDS011;16450;50.288;10.966;2023-04-24T03:06:10;4.27;;;1.80;;
29500;SDS011;16450;50.288;10.966;2023-04-24T03:09:12;2.00;;;1.27;;
29500;SDS011;16450;50.288;10.966;2023-04-24T03:12:14;2.40;;;1.47;;
29500;SDS011;16450;50.288;10.966;2023-04-24T03:15:18;2.30;;;1.30;;
29500;SDS011;16450;50.288;10.966;2023-04-24T03:18:20;2.37;;;1.40;;
29500;SDS011;16450;50.288;10.966;2023-04-24T03:21:22;2.90;;;1.40;;
29500;SDS011;16450;50.288;10.966;2023-04-24T03:24:24;1.97;;;1.20;;
29500;SDS011;16450;50.288;10.966;2023-04-24T03:27:26;2.10;;;1.30;;
29500;SDS011;16450;50.288;10.966;2023-04-24T03:30:28;4.47;;;1.17;;
29500;SDS011;16450;50.288;10.966;2023-04-24T03:33:30;4.20;;;1.43;;
29500;SDS011;16450;50.288;10.966;2023-04-24T03:36:32;2.97;;;1.20;;
29500;SDS011;16450;50.288;10.966;2023-04-24T03:39:33;3.30;;;1.43;;
29500;SDS011;16450;50.288;10.966;2023-04-24T03:42:35;1.80;;;1.43;;
29500;SDS011;16450;50.288;10.966;2023-04-24T03:45:39;1.93;;;1.47;;
29500;SDS011;16450;50.288;10.966;2023-04-24T03:48:41;2.17;;;1.20;;
29500;SDS011;16450;50.288;10.966;2023-04-24T03:51:43;1.77;;;1.00;;
29500;SDS011;16450;50.288;10.966;2023-04-24T03:54:45;2.37;;;1.20;;
29500;SDS011;16450;50.288;10.966;2023-04-24T03:57:47;5.27;;;1.50;;
29500;SDS011;16450;50.288;10.966;2023-04-24T04:00:49;1.63;;;1.23;;
29500;SDS011;16450;50.288;10.966;2023-04-24T04:03:51;3.20;;;1.20;;
29500;SDS011;16450;50.288;10.966;2023-04-24T04:06:53;1.70;;;1.27;;
29500;SDS011;16450;50.288;10.966;2023-04-24T04:09:55;1.93;;;1.20;;
29500;SDS011;16450;50.288;10.966;2023-04-24T04:12:57;3.57;;;1.53;;
29500;SDS011;16450;50.288;10.966;2023-04-24T04:15:59;2.17;;;1.40;;
29500;SDS011;16450;50.288;10.966;2023-04-24T04:19:01;3.47;;;1.50;;
29500;SDS011;16450;50.288;10.966;2023-04-24T04:22:04;3.47;;;1.30;;
29500;SDS011;16450;50.288;10.966;2023-04-24T04:25:06;3.17;;;1.50;;
29500;SDS011;16450;50.288;10.966;2023-04-24T04:28:09;4.43;;;1.20;;
29500;SDS011;16450;50.288;10.966;2023-04-24T04:31:11;3.43;;;1.37;;
29500;SDS011;16450;50.288;10.966;2023-04-24T04:34:14;3.33;;;1.10;;
29500;SDS011;16450;50.288;10.966;2023-04-24T04:37:16;1.87;;;1.07;;
29500;SDS011;16450;50.288;10.966;2023-04-24T04:40:18;2.33;;;1.33;;
29500;SDS011;16450;50.288;10.966;2023-04-24T04:43:20;2.43;;;1.20;;
29500;SDS011;16450;50.288;10.966;2023-04-24T04:46:22;3.87;;;1.40;;
29500;SDS011;16450;50.288;10.966;2023-04-24T04:49:27;3.77;;;1.40;;
29500;SDS011;16450;50.288;10.966;2023-04-24T04:52:29;3.07;;;1.30;;
29500;SDS011;16450;50.288;10.966;2023-04-24T04:55:31;3.13;;;1.40;;
29500;SDS011;16450;50.288;10.966;2023-04-24T04:58:33;4.67;;;1.33;;
29500;SDS011;16450;50.288;10.966;2023-04-24T05:01:35;4.90;;;1.40;;
29500;SDS011;16450;50.288;10.966;2023-04-24T05:04:38;2.20;;;1.27;;
29500;SDS011;16450;50.288;10.966;2023-04-24T05:07:40;5.73;;;1.40;;
29500;SDS011;16450;50.288;10.966;2023-04-24T05:10:42;5.97;;;1.70;;
29500;SDS011;16450;50.288;10.966;2023-04-24T05:13:43;3.23;;;1.10;;
29500;SDS011;16450;50.288;10.966;2023-04-24T05:16:45;3.57;;;1.43;;
29500;SDS011;16450;50.288;10.966;2023-04-24T05:19:47;2.33;;;1.10;;
29500;SDS011;16450;50.288;10.966;2023-04-24T05:22:49;3.57;;;1.90;;
29500;SDS011;16450;50.288;10.966;2023-04-24T05:25:51;3.33;;;1.80;;
29500;SDS011;16450;50.288;10.966;2023-04-24T05:28:53;2.27;;;1.80;;
29500;SDS011;16450;50.288;10.966;2023-04-24T05:31:55;3.57;;;1.60;;
29500;SDS011;16450;50.288;10.966;2023-04-24T05:34:57;4.30;;;1.93;;
29500;SDS011;16450;50.288;10.966;2023-04-24T05:37:59;2.60;;;1.27;;
29500;SDS011;16450;50.288;10.966;2023-04-24T05:41:01;3.53;;;1.43;;
29500;SDS011;16450;50.288;10.966;2023-04-24T05:44:03;2.07;;;1.30;;
29500;SDS011;16450;50.288;10.966;2023-04-24T05:47:05;2.37;;;1.20;;
29500;SDS011;16450;50.288;10.966;2023-04-24T05:50:07;3.43;;;1.40;;
29500;SDS011;16450;50.288;10.966;2023-04-24T05:53:09;1.57;;;1.10;;
29500;SDS011;16450;50.288;10.966;2023-04-24T05:56:12;2.70;;;1.10;;
29500;SDS011;16450;50.288;10.966;2023-04-24T05:59:13;4.23;;;1.20;;
29500;SDS011;16450;50.288;10.966;2023-04-24T06:02:15;3.47;;;1.03;;
29500;SDS011;16450;50.288;10.966;2023-04-24T06:05:18;6.73;;;1.40;;
29500;SDS011;16450;50.288;10.966;2023-04-24T06:08:20;2.33;;;0.90;;
29500;SDS011;16450;50.288;10.966;2023-04-24T06:11:22;5.40;;;1.20;;
29500;SDS011;16450;50.288;10.966;2023-04-24T06:14:24;2.50;;;1.03;;
29500;SDS011;16450;50.288;10.966;2023-04-24T06:17:26;1.77;;;1.07;;
29500;SDS011;16450;50.288;10.966;2023-04-24T06:20:27;2.03;;;1.10;;
29500;SDS011;16450;50.288;10.966;2023-04-24T06:23:29;2.17;;;1.17;;
29500;SDS011;16450;50.288;10.966;2023-04-24T06:26:33;2.63;;;1.17;;
29500;SDS011;16450;50.288;10.966;2023-04-24T06:29:36;2.40;;;1.13;;
29500;SDS011;16450;50.288;10.966;2023-04-24T06:32:39;2.83;;;1.20;;
29500;SDS011;16450;50.288;10.966;2023-04-24T06:35:41;3.83;;;1.20;;
29500;SDS011;16450;50.288;10.966;2023-04-24T06:38:43;1.57;;;1.00;;
29500;SDS011;16450;50.288;10.966;2023-04-24T06:41:45;2.47;;;1.30;;
29500;SDS011;16450;50.288;10.966;2023-04-24T06:44:47;1.30;;;1.07;;
29500;SDS011;16450;50.288;10.966;2023-04-24T06:47:49;3.07;;;0.87;;
29500;SDS011;16450;50.288;10.966;2023-04-24T06:50:51;2.57;;;1.10;;
29500;SDS011;16450;50.288;10.966;2023-04-24T06:53:53;2.60;;;1.20;;
29500;SDS011;16450;50.288;10.966;2023-04-24T06:56:55;4.60;;;1.33;;
29500;SDS011;16450;50.288;10.966;2023-04-24T06:59:59;4.67;;;1.27;;
29500;SDS011;16450;50.288;10.966;2023-04-24T07:03:00;5.23;;;1.30;;
29500;SDS011;16450;50.288;10.966;2023-04-24T07:06:04;3.10;;;1.10;;
29500;SDS011;16450;50.288;10.966;2023-04-24T07:09:06;2.70;;;1.20;;
29500;SDS011;16450;50.288;10.966;2023-04-24T07:12:10;1.30;;;1.17;;
29500;SDS011;16450;50.288;10.966;2023-04-24T07:15:12;3.03;;;1.10;;
29500;SDS011;16450;50.288;10.966;2023-04-24T07:18:14;2.60;;;1.17;;
29500;SDS011;16450;50.288;10.966;2023-04-24T07:21:16;1.67;;;1.00;;
29500;SDS011;16450;50.288;10.966;2023-04-24T07:24:18;2.73;;;1.20;;
29500;SDS011;16450;50.288;10.966;2023-04-24T07:27:22;3.23;;;1.20;;
29500;SDS011;16450;50.288;10.966;2023-04-24T07:30:24;3.40;;;1.20;;
29500;SDS011;16450;50.288;10.966;2023-04-24T07:33:27;2.97;;;1.30;;
29500;SDS011;16450;50.288;10.966;2023-04-24T07:36:29;1.43;;;1.00;;
29500;SDS011;16450;50.288;10.966;2023-04-24T07:39:31;1.70;;;1.37;;
29500;SDS011;16450;50.288;10.966;2023-04-24T07:42:32;1.60;;;1.20;;
29500;SDS011;16450;50.288;10.966;2023-04-24T07:45:36;1.23;;;1.10;;
29500;SDS011;16450;50.288;10.966;2023-04-24T07:48:38;2.70;;;1.30;;
29500;SDS011;16450;50.288;10.966;2023-04-24T07:51:40;1.60;;;1.10;;
29500;SDS011;16450;50.288;10.966;2023-04-24T07:54:43;2.67;;;1.30;;
29500;SDS011;16450;50.288;10.966;2023-04-24T07:57:45;3.53;;;1.20;;
29500;SDS011;16450;50.288;10.966;2023-04-24T08:00:47;2.20;;;1.10;;
29500;SDS011;16450;50.288;10.966;2023-04-24T08:03:49;1.40;;;1.07;;
29500;SDS011;16450;50.288;10.966;2023-04-24T08:06:52;1.30;;;1.20;;
29500;SDS011;16450;50.288;10.966;2023-04-24T08:09:54;2.90;;;1.10;;
29500;SDS011;16450;50.288;10.966;2023-04-24T08:12:56;1.30;;;1.20;;
29500;SDS011;16450;50.288;10.966;2023-04-24T08:15:58;3.40;;;1.30;;
29500;SDS011;16450;50.288;10.966;2023-04-24T08:18:59;2.23;;;1.50;;
29500;SDS011;16450;50.288;10.966;2023-04-24T08:22:01;1.73;;;1.23;;
29500;SDS011;16450;50.288;10.966;2023-04-24T08:25:05;1.57;;;1.10;;
29500;SDS011;16450;50.288;10.966;2023-04-24T08:28:08;1.80;;;1.30;;
29500;SDS011;16450;50.288;10.966;2023-04-24T08:31:11;2.07;;;1.17;;
29500;SDS011;16450;50.288;10.966;2023-04-24T08:34:13;1.50;;;1.40;;
29500;SDS011;16450;50.288;10.966;2023-04-24T08:37:15;3.13;;;1.10;;
29500;SDS011;16450;50.288;10.966;2023-04-24T08:40:17;2.73;;;1.20;;
29500;SDS011;16450;50.288;10.966;2023-04-24T08:43:21;1.77;;;1.17;;
29500;SDS011;16450;50.288;10.966;2023-04-24T08:46:24;2.03;;;1.20;;
29500;SDS011;16450;50.288;10.966;2023-04-24T08:49:27;1.43;;;1.20;;
29500;SDS011;16450;50.288;10.966;2023-04-24T08:52:29;1.43;;;1.33;;
29500;SDS011;16450;50.288;10.966;2023-04-24T08:55:31;2.40;;;1.20;;
29500;SDS011;16450;50.288;10.966;2023-04-24T08:58:34;4.00;;;1.40;;
29500;SDS011;16450;50.288;10.966;2023-04-24T09:01:37;2.03;;;1.40;;
29500;SDS011;16450;50.288;10.966;2023-04-24T09:04:41;2.07;;;1.40;;
29500;SDS011;16450;50.288;10.966;2023-04-24T09:07:45;3.90;;;1.33;;
29500;SDS011;16450;50.288;10.966;2023-04-24T09:10:49;3.40;;;1.40;;
29500;SDS011;16450;50.288;10.966;2023-04-24T09:13:51;2.47;;;1.47;;
29500;SDS011;16450;50.288;10.966;2023-04-24T09:16:54;5.10;;;1.37;;
29500;SDS011;16450;50.288;10.966;2023-04-24T09:19:56;1.63;;;1.43;;
29500;SDS011;16450;50.288;10.966;2023-04-24T09:22:58;1.83;;;1.40;;
29500;SDS011;16450;50.288;10.966;2023-04-24T09:26:01;1.57;;;1.47;;
29500;SDS011;16450;50.288;10.966;2023-04-24T09:29:06;3.63;;;1.57;;
29500;SDS011;16450;50.288;10.966;2023-04-24T09:32:21;1.93;;;1.50;;
29500;SDS011;16450;50.288;10.966;2023-04-24T09:35:24;2.83;;;1.60;;
29500;SDS011;16450;50.288;10.966;2023-04-24T09:41:35;3.40;;;1.70;;
29500;SDS011;16450;50.288;10.966;2023-04-24T09:44:44;2.37;;;1.70;;
29500;SDS011;16450;50.288;10.966;2023-04-24T09:48:01;1.80;;;1.57;;
29500;SDS011;16450;50.288;10.966;2023-04-24T09:51:04;4.47;;;1.90;;
29500;SDS011;16450;50.288;10.966;2023-04-24T09:54:19;2.77;;;1.80;;
29500;SDS011;16450;50.288;10.966;2023-04-24T09:57:23;2.23;;;1.70;;
29500;SDS011;16450;50.288;10.966;2023-04-24T10:00:26;2.77;;;1.83;;
29500;SDS011;16450;50.288;10.966;2023-04-24T10:03:29;3.00;;;2.10;;
29500;SDS011;16450;50.288;10.966;2023-04-24T10:06:33;3.23;;;2.10;;
29500;SDS011;16450;50.288;10.966;2023-04-24T10:09:36;3.33;;;2.10;;
29500;SDS011;16450;50.288;10.966;2023-04-24T10:12:38;2.07;;;1.80;;
29500;SDS011;16450;50.288;10.966;2023-04-24T10:15:41;4.30;;;2.10;;
29500;SDS011;16450;50.288;10.966;2023-04-24T10:18:44;2.17;;;1.90;;
29500;SDS011;16450;50.288;10.966;2023-04-24T10:21:46;3.30;;;1.70;;
29500;SDS011;16450;50.288;10.966;2023-04-24T10:24:49;1.80;;;1.70;;
29500;SDS011;16450;50.288;10.966;2023-04-24T10:27:52;1.97;;;1.40;;
29500;SDS011;16450;50.288;10.966;2023-04-24T10:30:58;2.90;;;1.70;;
29500;SDS011;16450;50.288;10.966;2023-04-24T10:34:00;3.17;;;1.70;;
29500;SDS011;16450;50.288;10.966;2023-04-24T10:37:03;1.77;;;1.60;;
29500;SDS011;16450;50.288;10.966;2023-04-24T10:40:06;4.63;;;1.57;;
29500;SDS011;16450;50.288;10.966;2023-04-24T10:43:09;2.10;;;1.60;;
29500;SDS011;16450;50.288;10.966;2023-04-24T10:46:16;4.43;;;1.80;;
29500;SDS011;16450;50.288;10.966;2023-04-24T10:49:28;2.03;;;1.70;;
29500;SDS011;16450;50.288;10.966;2023-04-24T10:52:44;4.07;;;1.87;;
29500;SDS011;16450;50.288;10.966;2023-04-24T10:55:47;3.57;;;2.20;;
29500;SDS011;16450;50.288;10.966;2023-04-24T10:58:52;2.13;;;1.80;;
29500;SDS011;16450;50.288;10.966;2023-04-24T11:01:55;5.33;;;2.57;;
29500;SDS011;16450;50.288;10.966;2023-04-24T11:04:57;4.10;;;2.10;;
29500;SDS011;16450;50.288;10.966;2023-04-24T11:08:12;2.63;;;2.17;;
29500;SDS011;16450;50.288;10.966;2023-04-24T11:11:16;3.90;;;2.07;;
29500;SDS011;16450;50.288;10.966;2023-04-24T11:14:19;3.47;;;2.13;;
29500;SDS011;16450;50.288;10.966;2023-04-24T11:20:44;1.90;;;1.70;;
29500;SDS011;16450;50.288;10.966;2023-04-24T11:23:47;2.90;;;2.03;;
29500;SDS011;16450;50.288;10.966;2023-04-24T11:26:51;2.60;;;1.80;;
29500;SDS011;16450;50.288;10.966;2023-04-24T11:33:01;4.10;;;1.80;;
29500;SDS011;16450;50.288;10.966;2023-04-24T11:36:06;2.47;;;1.67;;
29500;SDS011;16450;50.288;10.966;2023-04-24T11:39:08;2.33;;;1.87;;
29500;SDS011;16450;50.288;10.966;2023-04-24T11:42:15;2.30;;;2.10;;
29500;SDS011;16450;50.288;10.966;2023-04-24T11:45:18;2.17;;;1.77;;
29500;SDS011;16450;50.288;10.966;2023-04-24T11:48:23;3.37;;;1.87;;
29500;SDS011;16450;50.288;10.966;2023-04-24T11:51:26;1.97;;;1.83;;
29500;SDS011;16450;50.288;10.966;2023-04-24T11:54:36;4.67;;;1.77;;
29500;SDS011;16450;50.288;10.966;2023-04-24T11:57:38;2.17;;;1.80;;
29500;SDS011;16450;50.288;10.966;2023-04-24T12:00:45;2.80;;;1.77;;
29500;SDS011;16450;50.288;10.966;2023-04-24T12:03:48;2.57;;;1.80;;
29500;SDS011;16450;50.288;10.966;2023-04-24T12:06:58;3.90;;;1.90;;
29500;SDS011;16450;50.288;10.966;2023-04-24T12:10:01;2.20;;;2.00;;
29500;SDS011;16450;50.288;10.966;2023-04-24T12:13:04;3.57;;;1.70;;
29500;SDS011;16450;50.288;10.966;2023-04-24T12:16:06;2.73;;;1.70;;
29500;SDS011;16450;50.288;10.966;2023-04-24T12:19:08;3.17;;;2.00;;
29500;SDS011;16450;50.288;10.966;2023-04-24T12:22:10;1.67;;;1.57;;
29500;SDS011;16450;50.288;10.966;2023-04-24T12:25:13;2.10;;;1.80;;
29500;SDS011;16450;50.288;10.966;2023-04-24T12:28:19;2.30;;;2.10;;
29500;SDS011;16450;50.288;10.966;2023-04-24T12:31:22;2.73;;;2.10;;
29500;SDS011;16450;50.288;10.966;2023-04-24T12:34:25;3.07;;;2.20;;
29500;SDS011;16450;50.288;10.966;2023-04-24T12:37:32;2.93;;;2.17;;
29500;SDS011;16450;50.288;10.966;2023-04-24T12:40:34;3.83;;;2.20;;
29500;SDS011;16450;50.288;10.966;2023-04-24T12:43:36;3.27;;;2.03;;
29500;SDS011;16450;50.288;10.966;2023-04-24T12:46:39;3.33;;;2.40;;
29500;SDS011;16450;50.288;10.966;2023-04-24T12:49:41;2.30;;;2.10;;
29500;SDS011;16450;50.288;10.966;2023-04-24T12:52:43;2.37;;;2.17;;
29500;SDS011;16450;50.288;10.966;2023-04-24T12:55:45;5.33;;;2.07;;
29500;SDS011;16450;50.288;10.966;2023-04-24T12:58:53;3.50;;;1.90;;
29500;SDS011;16450;50.288;10.966;2023-04-24T13:01:55;2.03;;;1.83;;
29500;SDS011;16450;50.288;10.966;2023-04-24T13:04:57;1.80;;;1.70;;
29500;SDS011;16450;50.288;10.966;2023-04-24T13:08:00;2.90;;;1.80;;
29500;SDS011;16450;50.288;10.966;2023-04-24T13:11:02;1.70;;;1.60;;
29500;SDS011;16450;50.288;10.966;2023-04-24T13:14:04;4.37;;;2.00;;
29500;SDS011;16450;50.288;10.966;2023-04-24T13:17:06;2.00;;;1.63;;
29500;SDS011;16450;50.288;10.966;2023-04-24T13:20:11;2.23;;;2.00;;
29500;SDS011;16450;50.288;10.966;2023-04-24T13:23:13;3.47;;;1.80;;
29500;SDS011;16450;50.288;10.966;2023-04-24T13:26:16;3.93;;;2.07;;
29500;SDS011;16450;50.288;10.966;2023-04-24T13:29:18;2.50;;;1.90;;
29500;SDS011;16450;50.288;10.966;2023-04-24T13:32:21;3.17;;;2.10;;
29500;SDS011;16450;50.288;10.966;2023-04-24T13:35:23;2.37;;;1.70;;
29500;SDS011;16450;50.288;10.966;2023-04-24T13:38:25;3.80;;;1.87;;
29500;SDS011;16450;50.288;10.966;2023-04-24T13:41:26;1.90;;;1.80;;
29500;SDS011;16450;50.288;10.966;2023-04-24T13:44:28;1.80;;;1.60;;
29500;SDS011;16450;50.288;10.966;2023-04-24T13:47:31;1.63;;;1.50;;
29500;SDS011;16450;50.288;10.966;2023-04-24T13:50:32;2.37;;;1.50;;
29500;SDS011;16450;50.288;10.966;2023-04-24T13:53:34;5.40;;;1.43;;
29500;SDS011;16450;50.288;10.966;2023-04-24T13:56:39;1.50;;;1.40;;
29500;SDS011;16450;50.288;10.966;2023-04-24T13:59:41;1.80;;;1.43;;
29500;SDS011;16450;50.288;10.966;2023-04-24T14:02:43;2.93;;;1.50;;
29500;SDS011;16450;50.288;10.966;2023-04-24T14:05:46;1.50;;;1.40;;
29500;SDS011;16450;50.288;10.966;2023-04-24T14:08:48;4.27;;;2.80;;
29500;SDS011;16450;50.288;10.966;2023-04-24T14:11:51;2.37;;;1.80;;
29500;SDS011;16450;50.288;10.966;2023-04-24T14:14:53;2.40;;;1.90;;
29500;SDS011;16450;50.288;10.966;2023-04-24T14:17:55;2.33;;;1.80;;
29500;SDS011;16450;50.288;10.966;2023-04-24T14:20:57;2.37;;;1.83;;
29500;SDS011;16450;50.288;10.966;2023-04-24T14:23:59;3.10;;;1.73;;
29500;SDS011;16450;50.288;10.966;2023-04-24T14:27:01;2.13;;;1.50;;
29500;SDS011;16450;50.288;10.966;2023-04-24T14:30:04;2.03;;;1.40;;
29500;SDS011;16450;50.288;10.966;2023-04-24T14:33:07;1.40;;;1.30;;
29500;SDS011;16450;50.288;10.966;2023-04-24T14:36:08;1.87;;;1.63;;
29500;SDS011;16450;50.288;10.966;2023-04-24T14:39:11;2.07;;;1.40;;
29500;SDS011;16450;50.288;10.966;2023-04-24T14:42:13;1.93;;;1.43;;
29500;SDS011;16450;50.288;10.966;2023-04-24T14:45:15;2.40;;;1.40;;
29500;SDS011;16450;50.288;10.966;2023-04-24T14:48:17;1.87;;;1.23;;
29500;SDS011;16450;50.288;10.966;2023-04-24T14:51:20;1.50;;;1.27;;
29500;SDS011;16450;50.288;10.966;2023-04-24T14:54:21;1.67;;;1.30;;
29500;SDS011;16450;50.288;10.966;2023-04-24T14:57:24;1.53;;;1.43;;
29500;SDS011;16450;50.288;10.966;2023-04-24T15:00:26;2.00;;;1.57;;
29500;SDS011;16450;50.288;10.966;2023-04-24T15:03:28;2.07;;;1.57;;
29500;SDS011;16450;50.288;10.966;2023-04-24T15:06:31;1.93;;;1.30;;
29500;SDS011;16450;50.288;10.966;2023-04-24T15:09:33;2.00;;;1.30;;
29500;SDS011;16450;50.288;10.966;2023-04-24T15:12:35;1.30;;;1.20;;
29500;SDS011;16450;50.288;10.966;2023-04-24T15:15:37;1.50;;;1.37;;
29500;SDS011;16450;50.288;10.966;2023-04-24T15:18:39;2.20;;;1.50;;
29500;SDS011;16450;50.288;10.966;2023-04-24T15:21:41;2.77;;;1.60;;
29500;SDS011;16450;50.288;10.966;2023-04-24T15:24:44;2.10;;;1.70;;
29500;SDS011;16450;50.288;10.966;2023-04-24T15:27:46;2.37;;;1.50;;
29500;SDS011;16450;50.288;10.966;2023-04-24T15:30:48;1.90;;;1.70;;
29500;SDS011;16450;50.288;10.966;2023-04-24T15:33:51;1.80;;;1.67;;
29500;SDS011;16450;50.288;10.966;2023-04-24T15:36:53;2.57;;;1.87;;
29500;SDS011;16450;50.288;10.966;2023-04-24T15:39:55;3.03;;;1.73;;
29500;SDS011;16450;50.288;10.966;2023-04-24T15:42:57;1.93;;;1.77;;
29500;SDS011;16450;50.288;10.966;2023-04-24T15:45:59;1.40;;;1.07;;
29500;SDS011;16450;50.288;10.966;2023-04-24T15:49:01;1.97;;;1.30;;
29500;SDS011;16450;50.288;10.966;2023-04-24T15:52:03;1.70;;;1.60;;
29500;SDS011;16450;50.288;10.966;2023-04-24T15:55:05;1.53;;;1.23;;
29500;SDS011;16450;50.288;10.966;2023-04-24T15:58:07;1.60;;;1.10;;
29500;SDS011;16450;50.288;10.966;2023-04-24T16:01:09;1.30;;;1.20;;
29500;SDS011;16450;50.288;10.966;2023-04-24T16:04:12;1.50;;;1.30;;
29500;SDS011;16450;50.288;10.966;2023-04-24T16:07:14;3.13;;;1.50;;
29500;SDS011;16450;50.288;10.966;2023-04-24T16:10:18;1.20;;;1.10;;
29500;SDS011;16450;50.288;10.966;2023-04-24T16:13:21;1.30;;;1.20;;
29500;SDS011;16450;50.288;10.966;2023-04-24T16:16:23;3.37;;;3.07;;
29500;SDS011;16450;50.288;10.966;2023-04-24T16:19:25;1.40;;;1.30;;
29500;SDS011;16450;50.288;10.966;2023-04-24T16:22:29;2.63;;;1.30;;
29500;SDS011;16450;50.288;10.966;2023-04-24T16:25:31;1.73;;;1.50;;
29500;SDS011;16450;50.288;10.966;2023-04-24T16:28:33;2.07;;;1.67;;
29500;SDS011;16450;50.288;10.966;2023-04-24T16:31:35;2.10;;;1.50;;
29500;SDS011;16450;50.288;10.966;2023-04-24T16:34:37;1.87;;;1.60;;
29500;SDS011;16450;50.288;10.966;2023-04-24T16:37:39;2.57;;;1.67;;
29500;SDS011;16450;50.288;10.966;2023-04-24T16:40:41;3.20;;;1.80;;
29500;SDS011;16450;50.288;10.966;2023-04-24T16:43:43;2.00;;;1.70;;
29500;SDS011;16450;50.288;10.966;2023-04-24T16:46:45;3.37;;;1.90;;
29500;SDS011;16450;50.288;10.966;2023-04-24T16:49:47;3.10;;;2.40;;
29500;SDS011;16450;50.288;10.966;2023-04-24T16:52:50;5.47;;;1.97;;
29500;SDS011;16450;50.288;10.966;2023-04-24T16:55:51;2.73;;;2.20;;
29500;SDS011;16450;50.288;10.966;2023-04-24T16:58:53;3.20;;;2.10;;
29500;SDS011;16450;50.288;10.966;2023-04-24T17:01:56;3.70;;;2.00;;
29500;SDS011;16450;50.288;10.966;2023-04-24T17:04:58;2.90;;;2.33;;
29500;SDS011;16450;50.288;10.966;2023-04-24T17:08:00;3.20;;;2.27;;
29500;SDS011;16450;50.288;10.966;2023-04-24T17:11:02;3.10;;;2.17;;
29500;SDS011;16450;50.288;10.966;2023-04-24T17:14:04;3.53;;;2.27;;
29500;SDS011;16450;50.288;10.966;2023-04-24T17:17:07;3.67;;;2.40;;
29500;SDS011;16450;50.288;10.966;2023-04-24T17:20:09;3.83;;;2.03;;
29500;SDS011;16450;50.288;10.966;2023-04-24T17:23:23;2.40;;;2.20;;
29500;SDS011;16450;50.288;10.966;2023-04-24T17:26:25;3.03;;;1.90;;
29500;SDS011;16450;50.288;10.966;2023-04-24T17:29:27;4.23;;;2.23;;
29500;SDS011;16450;50.288;10.966;2023-04-24T17:32:29;3.57;;;2.60;;
29500;SDS011;16450;50.288;10.966;2023-04-24T17:35:31;5.10;;;3.10;;
29500;SDS011;16450;50.288;10.966;2023-04-24T17:38:33;5.03;;;3.57;;
29500;SDS011;16450;50.288;10.966;2023-04-24T17:41:35;5.40;;;3.73;;
29500;SDS011;16450;50.288;10.966;2023-04-24T17:44:37;6.30;;;3.70;;
29500;SDS011;16450;50.288;10.966;2023-04-24T17:47:39;5.63;;;3.70;;
29500;SDS011;16450;50.288;10.966;2023-04-24T17:50:42;8.27;;;5.10;;
29500;SDS011;16450;50.288;10.966;2023-04-24T17:53:44;5.57;;;4.23;;
29500;SDS011;16450;50.288;10.966;2023-04-24T17:56:49;8.03;;;4.30;;
29500;SDS011;16450;50.288;10.966;2023-04-24T17:59:53;6.00;;;4.07;;
29500;SDS011;16450;50.288;10.966;2023-04-24T18:02:55;4.37;;;3.10;;
29500;SDS011;16450;50.288;10.966;2023-04-24T18:06:01;5.00;;;3.13;;
29500;SDS011;16450;50.288;10.966;2023-04-24T18:09:06;5.33;;;2.87;;
29500;SDS011;16450;50.288;10.966;2023-04-24T18:12:08;5.27;;;3.03;;